createdAt,value
2023-03-02T00:01:03.841Z,3.33
2023-03-02T00:03:33.506Z,3.34
2023-03-02T00:06:01.963Z,3.35
2023-03-02T00:08:29.968Z,3.36
2023-03-02T00:11:00.883Z,3.34
2023-03-02T00:13:31.163Z,3.30
2023-03-02T00:16:00.252Z,3.27
2023-03-02T00:18:28.051Z,3.28
2023-03-02T00:20:55.811Z,3.31
2023-03-02T00:23:23.486Z,3.30
2023-03-02T00:25:51.226Z,3.31
2023-03-02T00:28:18.913Z,3.28
2023-03-02T00:30:46.776Z,3.23
2023-03-02T00:33:16.170Z,3.22
2023-03-02T00:35:43.879Z,3.21
2023-03-02T00:38:11.608Z,3.21
2023-03-02T00:40:39.337Z,3.20
2023-03-02T00:43:07.045Z,3.21
2023-03-02T00:45:34.755Z,3.18
2023-03-02T00:48:02.421Z,3.17
2023-03-02T00:50:31.576Z,3.13
2023-03-02T00:52:59.262Z,3.12
2023-03-02T00:55:26.941Z,3.09
2023-03-02T00:57:55.904Z,3.10
2023-03-02T01:00:24.372Z,3.11
2023-03-02T01:02:52.247Z,3.06
2023-03-02T01:05:20.071Z,3.07
2023-03-02T01:07:49.682Z,3.04
2023-03-02T01:10:17.826Z,3.06
2023-03-02T01:12:45.522Z,3.04
2023-03-02T01:15:13.858Z,3.00
2023-03-02T01:17:42.912Z,2.97
2023-03-02T01:20:11.985Z,2.96
2023-03-02T01:22:39.663Z,2.93
2023-03-02T01:25:09.174Z,2.92
2023-03-02T01:27:36.874Z,2.91
2023-03-02T01:30:05.286Z,2.87
2023-03-02T01:32:33.140Z,2.85
2023-03-02T01:35:00.885Z,2.82
2023-03-02T01:37:28.681Z,2.75
2023-03-02T01:39:56.440Z,2.74
2023-03-02T01:42:25.595Z,2.70
2023-03-02T01:44:57.084Z,2.74
2023-03-02T01:47:27.927Z,2.71
2023-03-02T01:49:59.965Z,2.71
2023-03-02T01:52:28.492Z,2.66
2023-03-02T01:55:00.072Z,2.64
2023-03-02T01:57:33.912Z,2.64
2023-03-02T02:00:08.436Z,2.59
2023-03-02T02:02:36.922Z,2.60
2023-03-02T02:05:05.556Z,2.56
2023-03-02T02:07:33.277Z,2.50
2023-03-02T02:10:01.798Z,2.46
2023-03-02T02:12:31.186Z,2.42
2023-03-02T02:15:00.800Z,2.41
2023-03-02T02:17:30.273Z,2.36
2023-03-02T02:20:08.950Z,2.31
2023-03-02T02:22:49.075Z,2.30
2023-03-02T02:25:27.003Z,2.29
2023-03-02T02:27:57.461Z,2.32
2023-03-02T02:30:26.426Z,2.30
2023-03-02T02:32:56.409Z,2.24
2023-03-02T02:35:28.374Z,2.25
2023-03-02T02:37:59.456Z,2.23
2023-03-02T02:40:46.403Z,2.27
2023-03-02T02:43:20.490Z,2.25
2023-03-02T02:45:50.213Z,2.23
2023-03-02T02:48:20.444Z,2.13
2023-03-02T02:50:48.626Z,2.14
2023-03-02T02:53:20.635Z,2.13
2023-03-02T02:55:50.647Z,2.14
2023-03-02T02:58:29.381Z,2.14
2023-03-02T03:00:57.156Z,2.16
2023-03-02T03:03:30.990Z,2.15
2023-03-02T03:06:00.170Z,2.13
2023-03-02T03:08:55.777Z,2.14
2023-03-02T03:11:26.431Z,2.13
2023-03-02T03:14:06.390Z,2.10
2023-03-02T03:16:35.451Z,2.10
2023-03-02T03:19:09.295Z,2.11
2023-03-02T03:21:37.290Z,2.12
2023-03-02T03:24:05.436Z,2.11
2023-03-02T03:26:33.520Z,2.13
2023-03-02T03:29:03.801Z,2.14
2023-03-02T03:31:31.476Z,2.13
2023-03-02T03:34:01.056Z,2.14
2023-03-02T03:36:29.844Z,2.13
2023-03-02T03:38:58.330Z,2.11
2023-03-02T03:41:26.430Z,2.07
2023-03-02T03:43:54.438Z,2.07
2023-03-02T03:46:23.680Z,2.05
2023-03-02T03:48:51.481Z,2.05
2023-03-02T03:51:19.451Z,2.08
2023-03-02T03:53:57.249Z,2.05
2023-03-02T03:56:24.960Z,2.04
2023-03-02T03:58:53.993Z,2.05
2023-03-02T04:01:23.360Z,2.02
2023-03-02T04:03:51.127Z,2.01
2023-03-02T04:06:19.270Z,1.99
2023-03-02T04:08:46.973Z,1.97
2023-03-02T04:11:14.691Z,1.95
2023-03-02T04:13:42.432Z,1.93
2023-03-02T04:16:10.224Z,1.90
2023-03-02T04:18:39.351Z,1.92
2023-03-02T04:21:07.124Z,1.93
2023-03-02T04:23:34.800Z,1.90
2023-03-02T04:26:05.054Z,1.90
2023-03-02T04:28:33.101Z,1.90
2023-03-02T04:31:01.005Z,1.84
2023-03-02T04:33:28.803Z,1.83
2023-03-02T04:35:58.088Z,1.78
2023-03-02T04:38:29.675Z,1.76
2023-03-02T04:40:58.198Z,1.81
2023-03-02T04:43:26.618Z,1.76
2023-03-02T04:45:55.336Z,1.75
2023-03-02T04:48:23.499Z,1.74
2023-03-02T04:50:51.212Z,1.77
2023-03-02T04:53:20.308Z,1.79
2023-03-02T04:55:48.519Z,1.74
2023-03-02T04:58:16.330Z,1.71
2023-03-02T05:00:44.068Z,1.76
2023-03-02T05:03:11.900Z,1.77
2023-03-02T05:05:39.756Z,1.77
2023-03-02T05:08:07.511Z,1.79
2023-03-02T05:10:36.600Z,1.79
2023-03-02T05:13:05.759Z,1.79
2023-03-02T05:15:36.310Z,1.79
2023-03-02T05:18:05.842Z,1.80
2023-03-02T05:20:34.382Z,1.78
2023-03-02T05:23:05.146Z,1.79
2023-03-02T05:25:34.657Z,1.76
2023-03-02T05:28:04.486Z,1.76
2023-03-02T05:30:37.400Z,1.75
2023-03-02T05:33:05.315Z,1.72
2023-03-02T05:35:33.092Z,1.73
2023-03-02T05:38:00.820Z,1.73
2023-03-02T05:40:28.573Z,1.71
2023-03-02T05:42:56.343Z,1.68
2023-03-02T05:45:28.178Z,1.66
2023-03-02T05:47:56.479Z,1.66
2023-03-02T05:50:24.875Z,1.61
2023-03-02T05:52:52.638Z,1.62
2023-03-02T05:55:21.036Z,1.60
2023-03-02T05:57:49.724Z,1.58
2023-03-02T06:00:18.905Z,1.54
2023-03-02T06:02:48.807Z,1.53
2023-03-02T06:05:18.921Z,1.54
2023-03-02T06:07:47.050Z,1.47
2023-03-02T06:10:15.441Z,1.46
2023-03-02T06:12:43.356Z,1.49
2023-03-02T06:15:11.419Z,1.50
2023-03-02T06:17:39.414Z,1.50
2023-03-02T06:20:10.886Z,1.56
2023-03-02T06:22:41.113Z,1.57
2023-03-02T06:25:10.105Z,1.47
2023-03-02T06:27:41.577Z,1.44
2023-03-02T06:30:14.211Z,1.47
2023-03-02T06:32:42.352Z,1.51
2023-03-02T06:35:13.150Z,1.53
2023-03-02T06:37:44.073Z,1.55
2023-03-02T06:40:13.953Z,1.46
2023-03-02T06:42:43.074Z,1.40
2023-03-02T06:45:12.267Z,1.42
2023-03-02T06:47:40.122Z,1.41
2023-03-02T06:50:08.502Z,1.42
2023-03-02T06:52:40.454Z,1.48
2023-03-02T06:55:09.197Z,1.48
2023-03-02T06:57:37.138Z,1.48
2023-03-02T07:00:09.999Z,1.56
2023-03-02T07:02:38.455Z,1.62
2023-03-02T07:05:07.444Z,1.65
2023-03-02T07:07:35.225Z,1.66
2023-03-02T07:10:04.944Z,1.67
2023-03-02T07:12:32.675Z,1.72
2023-03-02T07:15:00.459Z,1.79
2023-03-02T07:17:28.198Z,1.78
2023-03-02T07:19:55.858Z,1.80
2023-03-02T07:22:23.553Z,1.85
2023-03-02T07:24:51.236Z,1.89
2023-03-02T07:27:20.347Z,1.98
2023-03-02T07:29:48.131Z,2.03
2023-03-02T07:32:15.919Z,2.08
2023-03-02T07:34:43.674Z,2.02
2023-03-02T07:37:11.428Z,2.08
2023-03-02T07:39:39.153Z,2.18
2023-03-02T07:42:08.861Z,2.26
2023-03-02T07:44:38.047Z,2.30
2023-03-02T07:47:06.055Z,2.33
2023-03-02T07:49:35.332Z,2.38
2023-03-02T07:52:03.078Z,2.41
2023-03-02T07:54:30.906Z,2.48
2023-03-02T07:56:59.143Z,2.56
2023-03-02T07:59:28.369Z,2.55
2023-03-02T08:01:58.218Z,2.64
2023-03-02T08:04:26.881Z,2.68
2023-03-02T08:06:54.626Z,2.73
2023-03-02T08:09:22.347Z,2.88
2023-03-02T08:11:50.584Z,2.90
2023-03-02T08:14:18.373Z,2.94
2023-03-02T08:16:46.088Z,2.96
2023-03-02T08:19:15.210Z,2.99
2023-03-02T08:21:43.666Z,3.10
2023-03-02T08:24:11.850Z,3.21
2023-03-02T08:26:39.951Z,3.33
2023-03-02T08:29:08.126Z,3.38
2023-03-02T08:31:36.205Z,3.41
2023-03-02T08:34:04.186Z,3.50
2023-03-02T08:36:33.496Z,3.56
2023-03-02T08:39:01.333Z,3.67
2023-03-02T08:41:29.128Z,3.75
2023-03-02T08:43:57.189Z,3.83
2023-03-02T08:46:24.868Z,3.92
2023-03-02T08:48:52.697Z,4.04
2023-03-02T08:51:23.022Z,4.14
2023-03-02T08:53:55.107Z,4.24
2023-03-02T08:56:25.352Z,4.33
2023-03-02T08:58:54.701Z,4.40
2023-03-02T09:01:25.073Z,4.47
2023-03-02T09:03:53.579Z,4.52
2023-03-02T09:06:21.735Z,4.60
2023-03-02T09:08:50.199Z,4.71
2023-03-02T09:11:19.469Z,4.74
2023-03-02T09:13:47.145Z,4.81
2023-03-02T09:16:15.869Z,4.82
2023-03-02T09:18:43.656Z,4.89
2023-03-02T09:21:14.770Z,4.94
2023-03-02T09:23:42.848Z,5.00
2023-03-02T09:26:10.610Z,5.07
2023-03-02T09:28:39.855Z,5.17
2023-03-02T09:31:09.485Z,5.27
2023-03-02T09:33:37.243Z,5.35
2023-03-02T09:36:07.796Z,5.44
2023-03-02T09:38:35.502Z,5.41
2023-03-02T09:41:37.871Z,5.44
2023-03-02T09:44:20.569Z,5.50
2023-03-02T09:46:50.754Z,5.49
2023-03-02T09:49:29.527Z,5.57
2023-03-02T09:52:11.579Z,5.63
2023-03-02T09:54:41.185Z,5.69
2023-03-02T09:57:22.150Z,5.82
2023-03-02T10:00:03.754Z,5.91
2023-03-02T10:02:38.500Z,5.97
2023-03-02T10:05:14.403Z,5.97
2023-03-02T10:07:42.192Z,6.05
2023-03-02T10:10:22.651Z,6.13
2023-03-02T10:13:02.100Z,6.18
2023-03-02T10:15:35.670Z,6.22
2023-03-02T10:18:14.719Z,6.27
2023-03-02T10:20:49.557Z,6.35
2023-03-02T10:23:37.488Z,6.40
2023-03-02T10:26:16.638Z,6.46
2023-03-02T10:28:49.660Z,6.54
2023-03-02T10:31:25.866Z,6.59
2023-03-02T10:33:54.036Z,6.65
2023-03-02T10:36:25.780Z,6.69
2023-03-02T10:38:55.115Z,6.72
2023-03-02T10:41:27.301Z,6.77
2023-03-02T10:43:59.416Z,6.73
2023-03-02T10:46:39.292Z,6.77
2023-03-02T10:49:07.052Z,6.84
2023-03-02T10:51:35.753Z,6.94
2023-03-02T10:54:08.506Z,7.01
2023-03-02T10:56:36.562Z,7.09
2023-03-02T10:59:14.609Z,7.15
2023-03-02T11:01:43.812Z,7.17
2023-03-02T11:04:16.044Z,7.24
2023-03-02T11:06:43.818Z,7.23
2023-03-02T11:09:15.637Z,7.31
2023-03-02T11:11:54.315Z,7.35
2023-03-02T11:14:23.514Z,7.32
2023-03-02T11:16:54.044Z,7.42
2023-03-02T11:19:30.853Z,7.53
2023-03-02T11:22:04.165Z,7.50
2023-03-02T11:24:39.970Z,7.58
2023-03-02T11:27:13.871Z,7.64
2023-03-02T11:29:45.395Z,7.68
2023-03-02T11:32:18.765Z,7.70
2023-03-02T11:34:50.574Z,7.69
2023-03-02T11:37:23.055Z,7.70
2023-03-02T11:40:06.261Z,7.77
2023-03-02T11:42:35.208Z,7.91
2023-03-02T11:45:09.950Z,8.00
2023-03-02T11:47:39.195Z,8.08
2023-03-02T11:50:11.499Z,8.12
2023-03-02T11:52:42.876Z,8.15
2023-03-02T11:55:18.746Z,8.17
2023-03-02T11:57:49.614Z,8.25
2023-03-02T12:00:28.307Z,8.31
2023-03-02T12:03:02.324Z,8.33
2023-03-02T12:05:32.287Z,8.35
2023-03-02T12:08:01.254Z,8.44
2023-03-02T12:10:34.447Z,8.50
2023-03-02T12:13:14.804Z,8.58
2023-03-02T12:15:45.337Z,8.67
2023-03-02T12:18:32.298Z,8.74
2023-03-02T12:21:03.541Z,8.73
2023-03-02T12:23:33.516Z,8.82
2023-03-02T12:26:09.476Z,8.83
2023-03-02T12:28:39.671Z,8.91
2023-03-02T12:31:11.392Z,8.95
2023-03-02T12:33:43.663Z,8.93
2023-03-02T12:36:17.504Z,9.03
2023-03-02T12:38:53.978Z,9.05
2023-03-02T12:41:51.284Z,9.06
2023-03-02T12:44:33.373Z,9.04
2023-03-02T12:47:03.089Z,9.14
2023-03-02T12:49:46.165Z,9.16
2023-03-02T12:52:24.115Z,9.22
2023-03-02T12:55:01.515Z,9.17
2023-03-02T12:57:29.507Z,9.24
2023-03-02T12:59:59.253Z,9.28
2023-03-02T13:02:29.500Z,9.33
2023-03-02T13:05:00.130Z,9.37
2023-03-02T13:07:31.087Z,9.39
2023-03-02T13:10:00.286Z,9.39
2023-03-02T13:12:29.412Z,9.40
2023-03-02T13:14:59.228Z,9.47
2023-03-02T13:17:30.948Z,9.46
2023-03-02T13:20:02.686Z,9.44
2023-03-02T13:22:30.910Z,9.50
2023-03-02T13:25:00.502Z,9.58
2023-03-02T13:27:29.059Z,9.62
2023-03-02T13:29:57.938Z,9.67
2023-03-02T13:32:28.229Z,9.74
2023-03-02T13:34:58.805Z,9.74
2023-03-02T13:37:40.483Z,9.77
2023-03-02T13:40:30.918Z,9.81
2023-03-02T13:42:59.060Z,9.77
2023-03-02T13:45:30.943Z,9.80
2023-03-02T13:48:02.553Z,9.88
2023-03-02T13:50:33.942Z,9.93
2023-03-02T13:53:07.199Z,9.99
2023-03-02T13:55:36.444Z,10.02
2023-03-02T13:58:04.311Z,10.08
2023-03-02T14:00:34.141Z,10.10
2023-03-02T14:03:02.471Z,10.05
2023-03-02T14:05:33.400Z,10.15
2023-03-02T14:08:03.558Z,10.03
2023-03-02T14:10:31.298Z,9.99
2023-03-02T14:13:05.141Z,10.04
2023-03-02T14:15:34.870Z,10.09
2023-03-02T14:18:02.593Z,10.12
2023-03-02T14:20:32.866Z,10.16
2023-03-02T14:23:03.454Z,10.19
2023-03-02T14:25:32.708Z,10.19
2023-03-02T14:28:00.438Z,10.21
2023-03-02T14:30:28.135Z,10.23
2023-03-02T14:32:55.845Z,10.16
2023-03-02T14:35:25.926Z,10.13
2023-03-02T14:37:53.652Z,10.16
2023-03-02T14:40:26.625Z,10.17
2023-03-02T14:43:02.777Z,10.15
2023-03-02T14:45:31.002Z,10.14
2023-03-02T14:47:58.903Z,10.17
2023-03-02T14:50:26.660Z,10.17
2023-03-02T14:52:56.598Z,10.26
2023-03-02T14:55:28.004Z,10.32
2023-03-02T14:58:00.853Z,10.24
2023-03-02T15:00:28.964Z,10.24
2023-03-02T15:02:56.847Z,10.19
2023-03-02T15:05:24.552Z,10.23
2023-03-02T15:07:53.597Z,10.22
2023-03-02T15:10:23.638Z,10.16
2023-03-02T15:12:51.747Z,10.17
2023-03-02T15:15:20.922Z,10.13
2023-03-02T15:17:48.694Z,10.14
2023-03-02T15:20:17.205Z,10.13
2023-03-02T15:22:45.583Z,10.03
2023-03-02T15:25:13.250Z,10.06
2023-03-02T15:27:41.521Z,10.09
2023-03-02T15:30:12.165Z,10.09
2023-03-02T15:32:41.644Z,10.07
2023-03-02T15:35:09.990Z,10.04
2023-03-02T15:37:37.762Z,9.98
2023-03-02T15:40:06.639Z,10.00
2023-03-02T15:42:37.049Z,9.94
2023-03-02T15:45:05.682Z,10.02
2023-03-02T15:47:37.491Z,9.96
2023-03-02T15:50:07.324Z,9.92
2023-03-02T15:52:35.048Z,9.91
2023-03-02T15:55:02.700Z,9.89
2023-03-02T15:57:30.365Z,9.91
2023-03-02T15:59:58.104Z,9.86
2023-03-02T16:02:25.813Z,9.87
2023-03-02T16:04:53.572Z,9.83
2023-03-02T16:07:22.668Z,9.80
2023-03-02T16:09:51.736Z,9.84
2023-03-02T16:12:23.207Z,9.71
2023-03-02T16:14:50.849Z,9.64
2023-03-02T16:17:19.101Z,9.63
2023-03-02T16:19:46.962Z,9.58
2023-03-02T16:22:14.713Z,9.56
2023-03-02T16:24:43.891Z,9.48
2023-03-02T16:27:11.652Z,9.44
2023-03-02T16:29:39.435Z,9.35
2023-03-02T16:32:08.994Z,9.31
2023-03-02T16:34:36.881Z,9.27
2023-03-02T16:37:04.648Z,9.27
2023-03-02T16:39:32.865Z,9.20
2023-03-02T16:42:01.926Z,9.21
2023-03-02T16:44:29.689Z,9.19
2023-03-02T16:46:57.762Z,9.10
2023-03-02T16:49:25.551Z,9.02
2023-03-02T16:51:58.742Z,8.99
2023-03-02T16:54:26.745Z,8.90
2023-03-02T16:56:54.374Z,8.88
2023-03-02T16:59:23.519Z,8.80
2023-03-02T17:01:51.282Z,8.75
2023-03-02T17:04:21.139Z,8.72
2023-03-02T17:07:00.494Z,8.67
2023-03-02T17:09:29.053Z,8.54
2023-03-02T17:11:56.940Z,8.56
2023-03-02T17:14:26.309Z,8.45
2023-03-02T17:16:54.184Z,8.39
2023-03-02T17:19:21.832Z,8.37
2023-03-02T17:21:49.653Z,8.30
2023-03-02T17:24:17.296Z,8.27
2023-03-02T17:26:46.756Z,8.16
2023-03-02T17:29:14.515Z,8.01
2023-03-02T17:31:43.975Z,8.00
2023-03-02T17:34:12.331Z,7.82
2023-03-02T17:36:43.093Z,7.62
2023-03-02T17:39:10.768Z,7.61
2023-03-02T17:41:38.592Z,7.58
2023-03-02T17:44:06.731Z,7.40
2023-03-02T17:46:34.505Z,7.43
2023-03-02T17:49:04.101Z,7.37
2023-03-02T17:51:31.939Z,7.36
2023-03-02T17:53:59.675Z,7.22
2023-03-02T17:56:28.818Z,7.19
2023-03-02T17:58:57.996Z,7.20
2023-03-02T18:01:26.166Z,7.24
2023-03-02T18:03:54.072Z,7.15
2023-03-02T18:06:23.255Z,6.99
2023-03-02T18:08:54.610Z,6.96
2023-03-02T18:11:24.383Z,6.85
2023-03-02T18:13:54.728Z,6.80
2023-03-02T18:16:22.859Z,6.62
2023-03-02T18:18:57.230Z,6.67
2023-03-02T18:21:26.552Z,6.66
2023-03-02T18:23:54.345Z,6.57
2023-03-02T18:26:22.447Z,6.55
2023-03-02T18:28:50.132Z,6.50
2023-03-02T18:31:20.101Z,6.47
2023-03-02T18:33:49.711Z,6.39
2023-03-02T18:36:17.693Z,6.34
2023-03-02T18:38:46.868Z,6.32
2023-03-02T18:41:15.163Z,6.24
2023-03-02T18:43:43.462Z,6.22
2023-03-02T18:46:19.854Z,6.21
2023-03-02T18:48:49.648Z,6.18
2023-03-02T18:51:17.972Z,6.07
2023-03-02T18:53:47.760Z,5.96
2023-03-02T18:56:15.934Z,5.91
2023-03-02T18:58:43.750Z,5.97
2023-03-02T19:01:12.681Z,5.98
2023-03-02T19:03:41.937Z,6.00
2023-03-02T19:06:09.850Z,5.91
2023-03-02T19:08:37.685Z,5.78
2023-03-02T19:11:07.546Z,5.75
2023-03-02T19:13:35.473Z,5.74
2023-03-02T19:16:03.839Z,5.73
2023-03-02T19:18:32.052Z,5.71
2023-03-02T19:21:00.647Z,5.68
2023-03-02T19:23:28.759Z,5.67
2023-03-02T19:25:56.656Z,5.68
2023-03-02T19:28:26.191Z,5.61
2023-03-02T19:30:54.028Z,5.64
2023-03-02T19:33:24.929Z,5.58
2023-03-02T19:35:53.048Z,5.50
2023-03-02T19:38:22.635Z,5.44
2023-03-02T19:40:50.677Z,5.41
2023-03-02T19:43:20.511Z,5.36
2023-03-02T19:45:55.814Z,5.28
2023-03-02T19:48:23.708Z,5.27
2023-03-02T19:50:52.817Z,5.19
2023-03-02T19:53:20.752Z,5.16
2023-03-02T19:55:48.617Z,5.15
2023-03-02T19:58:19.011Z,5.11
2023-03-02T20:00:51.474Z,5.08
2023-03-02T20:03:19.278Z,5.10
2023-03-02T20:05:47.104Z,5.06
2023-03-02T20:08:16.714Z,5.02
2023-03-02T20:10:46.493Z,4.97
2023-03-02T20:13:14.274Z,4.92
2023-03-02T20:15:44.503Z,4.91
2023-03-02T20:18:16.390Z,4.85
2023-03-02T20:20:45.307Z,4.82
2023-03-02T20:23:13.396Z,4.80
2023-03-02T20:25:41.643Z,4.77
2023-03-02T20:28:11.883Z,4.72
2023-03-02T20:30:44.707Z,4.66
2023-03-02T20:33:15.249Z,4.62
2023-03-02T20:35:45.459Z,4.64
2023-03-02T20:38:18.962Z,4.57
2023-03-02T20:40:46.906Z,4.49
2023-03-02T20:43:14.912Z,4.38
2023-03-02T20:45:45.926Z,4.36
2023-03-02T20:48:15.254Z,4.29
2023-03-02T20:50:43.532Z,4.28
2023-03-02T20:53:11.931Z,4.16
2023-03-02T20:55:40.017Z,4.14
2023-03-02T20:58:07.752Z,4.09
2023-03-02T21:00:36.961Z,4.04
2023-03-02T21:03:05.899Z,4.00
2023-03-02T21:05:37.500Z,4.01
2023-03-02T21:08:05.769Z,3.98
2023-03-02T21:10:36.474Z,3.93
2023-03-02T21:13:05.786Z,3.86
2023-03-02T21:15:34.065Z,3.81
2023-03-02T21:18:02.428Z,3.76
2023-03-02T21:20:33.022Z,3.72
2023-03-02T21:23:02.941Z,3.68
2023-03-02T21:25:30.657Z,3.63
2023-03-02T21:27:58.794Z,3.63
2023-03-02T21:30:29.108Z,3.57
2023-03-02T21:32:57.342Z,3.49
2023-03-02T21:35:25.348Z,3.45
2023-03-02T21:37:57.276Z,3.39
2023-03-02T21:40:32.280Z,3.41
2023-03-02T21:43:00.372Z,3.41
2023-03-02T21:45:28.898Z,3.28
2023-03-02T21:47:56.650Z,3.08
2023-03-02T21:50:27.241Z,3.07
2023-03-02T21:52:56.001Z,3.07
2023-03-02T21:55:23.702Z,2.96
2023-03-02T21:57:52.862Z,2.90
2023-03-02T22:00:23.831Z,2.85
2023-03-02T22:02:51.837Z,2.87
2023-03-02T22:05:20.481Z,2.90
2023-03-02T22:07:48.692Z,2.90
2023-03-02T22:10:27.666Z,2.85
2023-03-02T22:13:05.491Z,2.84
2023-03-02T22:15:33.134Z,2.87
2023-03-02T22:18:00.816Z,2.81
2023-03-02T22:20:29.718Z,2.81
2023-03-02T22:22:58.481Z,2.80
2023-03-02T22:25:26.451Z,2.80
2023-03-02T22:27:55.051Z,2.76
2023-03-02T22:30:24.994Z,2.80
2023-03-02T22:32:52.718Z,2.83
2023-03-02T22:35:23.348Z,2.69
2023-03-02T22:37:52.790Z,2.73
2023-03-02T22:40:30.205Z,2.80
2023-03-02T22:43:10.996Z,2.78
2023-03-02T22:45:41.582Z,2.74
2023-03-02T22:48:15.679Z,2.74
2023-03-02T22:50:45.413Z,2.71
2023-03-02T22:53:29.193Z,2.75
2023-03-02T22:55:59.119Z,2.90
2023-03-02T22:58:32.751Z,2.97
2023-03-02T23:01:02.566Z,3.06
2023-03-02T23:03:39.733Z,3.06
2023-03-02T23:06:29.695Z,3.00
2023-03-02T23:09:00.084Z,2.93
2023-03-02T23:11:28.949Z,2.98
2023-03-02T23:13:57.137Z,3.01
2023-03-02T23:16:28.369Z,2.87
2023-03-02T23:18:59.191Z,2.87
2023-03-02T23:21:29.119Z,2.90
2023-03-02T23:23:57.206Z,2.93
2023-03-02T23:26:24.913Z,2.85
2023-03-02T23:28:52.604Z,2.81
2023-03-02T23:31:20.683Z,2.79
2023-03-02T23:33:49.809Z,2.78
2023-03-02T23:36:21.299Z,2.71
2023-03-02T23:38:49.585Z,2.66
2023-03-02T23:41:18.244Z,2.76
2023-03-02T23:43:46.056Z,2.78
2023-03-02T23:46:14.516Z,2.80
2023-03-02T23:48:42.859Z,2.78
2023-03-02T23:51:12.060Z,2.85
2023-03-02T23:53:39.960Z,2.87
2023-03-02T23:56:08.218Z,2.82
2023-03-02T23:58:35.900Z,2.77
